LOT223 EPSC-EPLB
Flight info
| Callsign | LOT223 |
|---|---|
| Flight time | 1h 4m |
| Altitude | 35000 |
| Route | DRE DCT LAW DCT TLY DCT RDO DCT SWI |
| Aircraft | A20N/M-SDE2E3FGHIRWXY/LB1 |
Departure
| Time | 2026-04-25 21:38 |
|---|---|
| Airport | Solidarity Szczecin–Goleniów Airport (EPSC) |
Arrival
| Time | 2026-04-25 22:42 |
|---|---|
| Airport | Lublin Airport (EPLB) |
| Time | Latitude | Longitude | Altitude | Speed | Heading |
|---|---|---|---|---|---|
| 2026-04-25 21:09 | 53.59247 | 14.89397 | 142 ft | 0 kts | 47° |
| 2026-04-25 21:32 | 53.59237 | 14.89378 | 142 ft | 2 kts | 46° |
| 2026-04-25 21:33 | 53.59226 | 14.89358 | 142 ft | 2 kts | 46° |
| 2026-04-25 21:33 | 53.59214 | 14.89338 | 142 ft | 2 kts | 45° |
| 2026-04-25 21:33 | 53.59202 | 14.89318 | 142 ft | 2 kts | 45° |
| 2026-04-25 21:33 | 53.59190 | 14.89300 | 142 ft | 2 kts | 17° |
| 2026-04-25 21:34 | 53.59174 | 14.89298 | 142 ft | 2 kts | 341° |
| 2026-04-25 21:34 | 53.59159 | 14.89311 | 142 ft | 2 kts | 311° |
| 2026-04-25 21:34 | 53.59149 | 14.89332 | 142 ft | 2 kts | 311° |
| 2026-04-25 21:34 | 53.59144 | 14.89341 | 142 ft | 0 kts | 310° |
| 2026-04-25 21:35 | 53.59144 | 14.89340 | 142 ft | 1 kts | 310° |
| 2026-04-25 21:35 | 53.59181 | 14.89269 | 142 ft | 14 kts | 311° |
| 2026-04-25 21:36 | 53.59254 | 14.89130 | 141 ft | 17 kts | 309° |
| 2026-04-25 21:36 | 53.59249 | 14.88938 | 140 ft | 18 kts | 255° |
| 2026-04-25 21:36 | 53.59169 | 14.88876 | 140 ft | 13 kts | 134° |
| 2026-04-25 21:36 | 53.59154 | 14.88904 | 140 ft | 0 kts | 132° |
| 2026-04-25 21:37 | 53.59126 | 14.88957 | 141 ft | 29 kts | 131° |
| 2026-04-25 21:37 | 53.58844 | 14.89503 | 140 ft | 94 kts | 131° |
| 2026-04-25 21:38 | 53.58294 | 14.90574 | 146 ft | 145 kts | 131° |
| 2026-04-25 21:38 | 53.57588 | 14.91931 | 498 ft | 154 kts | 131° |
| 2026-04-25 21:38 | 53.56872 | 14.93312 | 954 ft | 164 kts | 131° |
| 2026-04-25 21:38 | 53.56085 | 14.94842 | 1325 ft | 182 kts | 131° |
| 2026-04-25 21:39 | 53.55209 | 14.96546 | 1771 ft | 201 kts | 131° |
| 2026-04-25 21:39 | 53.54250 | 14.98404 | 2151 ft | 224 kts | 131° |
| 2026-04-25 21:39 | 53.53178 | 15.00475 | 2648 ft | 244 kts | 131° |
| 2026-04-25 21:39 | 53.52013 | 15.02716 | 3211 ft | 261 kts | 133° |
| 2026-04-25 21:40 | 53.50650 | 15.04769 | 4058 ft | 264 kts | 144° |
| 2026-04-25 21:40 | 53.49063 | 15.06431 | 4327 ft | 269 kts | 151° |
| 2026-04-25 21:40 | 53.47455 | 15.07946 | 4436 ft | 269 kts | 151° |
| 2026-04-25 21:40 | 53.45814 | 15.09507 | 4857 ft | 272 kts | 149° |
| 2026-04-25 21:41 | 53.44197 | 15.11292 | 5447 ft | 288 kts | 145° |
| 2026-04-25 21:41 | 53.42502 | 15.13327 | 5825 ft | 310 kts | 144° |
| 2026-04-25 21:41 | 53.40715 | 15.15492 | 6257 ft | 327 kts | 144° |
| 2026-04-25 21:41 | 53.38839 | 15.17734 | 7054 ft | 331 kts | 145° |
| 2026-04-25 21:42 | 53.36937 | 15.19976 | 7867 ft | 335 kts | 145° |
| 2026-04-25 21:42 | 53.35015 | 15.22221 | 8662 ft | 339 kts | 145° |
| 2026-04-25 21:42 | 53.33087 | 15.24463 | 9437 ft | 343 kts | 145° |
| 2026-04-25 21:42 | 53.31111 | 15.26754 | 10203 ft | 347 kts | 145° |
| 2026-04-25 21:43 | 53.29117 | 15.29064 | 10958 ft | 350 kts | 145° |
| 2026-04-25 21:43 | 53.27095 | 15.31403 | 11683 ft | 354 kts | 146° |
| 2026-04-25 21:43 | 53.25055 | 15.33762 | 12399 ft | 358 kts | 146° |
| 2026-04-25 21:43 | 53.22997 | 15.36138 | 13086 ft | 362 kts | 146° |
| 2026-04-25 21:44 | 53.20932 | 15.38519 | 13755 ft | 365 kts | 146° |
| 2026-04-25 21:44 | 53.18829 | 15.40942 | 14410 ft | 369 kts | 146° |
| 2026-04-25 21:44 | 53.14563 | 15.45848 | 15686 ft | 376 kts | 146° |
| 2026-04-25 21:45 | 53.12397 | 15.48334 | 16286 ft | 379 kts | 146° |
| 2026-04-25 21:45 | 53.10951 | 15.49991 | 16680 ft | 382 kts | 146° |
| 2026-04-25 21:45 | 53.08026 | 15.53341 | 17457 ft | 386 kts | 146° |
| 2026-04-25 21:45 | 53.05789 | 15.55899 | 18022 ft | 390 kts | 146° |
| 2026-04-25 21:46 | 53.03564 | 15.58440 | 18582 ft | 393 kts | 146° |
| 2026-04-25 21:46 | 53.01289 | 15.61035 | 19127 ft | 396 kts | 146° |
| 2026-04-25 21:46 | 52.98998 | 15.63644 | 19659 ft | 399 kts | 146° |
| 2026-04-25 21:46 | 52.96723 | 15.66231 | 20179 ft | 402 kts | 146° |
| 2026-04-25 21:47 | 52.94405 | 15.68866 | 20692 ft | 405 kts | 146° |
| 2026-04-25 21:47 | 52.92062 | 15.71524 | 21191 ft | 409 kts | 146° |
| 2026-04-25 21:47 | 52.89702 | 15.74198 | 21674 ft | 412 kts | 146° |
| 2026-04-25 21:47 | 52.87323 | 15.76889 | 22151 ft | 415 kts | 146° |
| 2026-04-25 21:48 | 52.84932 | 15.79594 | 22622 ft | 417 kts | 145° |
| 2026-04-25 21:48 | 52.82662 | 15.82618 | 23075 ft | 420 kts | 137° |
| 2026-04-25 21:48 | 52.80681 | 15.86126 | 23506 ft | 423 kts | 129° |
| 2026-04-25 21:48 | 52.78983 | 15.90119 | 23932 ft | 426 kts | 122° |
| 2026-04-25 21:49 | 52.77387 | 15.94274 | 24359 ft | 429 kts | 122° |
| 2026-04-25 21:49 | 52.75775 | 15.98442 | 24777 ft | 432 kts | 123° |
| 2026-04-25 21:49 | 52.74143 | 16.02638 | 25170 ft | 435 kts | 123° |
| 2026-04-25 21:49 | 52.72501 | 16.06842 | 25557 ft | 437 kts | 123° |
| 2026-04-25 21:50 | 52.70841 | 16.11081 | 25928 ft | 440 kts | 123° |
| 2026-04-25 21:50 | 52.69187 | 16.15294 | 26291 ft | 442 kts | 123° |
| 2026-04-25 21:50 | 52.67507 | 16.19568 | 26644 ft | 444 kts | 123° |
| 2026-04-25 21:50 | 52.66387 | 16.22414 | 26876 ft | 446 kts | 123° |
| 2026-04-25 21:51 | 52.64112 | 16.28183 | 27315 ft | 449 kts | 123° |
| 2026-04-25 21:51 | 52.62422 | 16.32462 | 27625 ft | 451 kts | 123° |
| 2026-04-25 21:51 | 52.60705 | 16.36800 | 27929 ft | 454 kts | 123° |
| 2026-04-25 21:51 | 52.58969 | 16.41180 | 28224 ft | 456 kts | 123° |
| 2026-04-25 21:52 | 52.57250 | 16.45508 | 28495 ft | 458 kts | 123° |
| 2026-04-25 21:52 | 52.55500 | 16.49908 | 28776 ft | 460 kts | 123° |
| 2026-04-25 21:52 | 52.53741 | 16.54323 | 29039 ft | 462 kts | 123° |
| 2026-04-25 21:52 | 52.51973 | 16.58753 | 29301 ft | 463 kts | 123° |
| 2026-04-25 21:53 | 52.50218 | 16.63141 | 29542 ft | 465 kts | 123° |
| 2026-04-25 21:53 | 52.48427 | 16.67613 | 29790 ft | 467 kts | 123° |
| 2026-04-25 21:53 | 52.46626 | 16.72101 | 30036 ft | 469 kts | 123° |
| 2026-04-25 21:53 | 52.44833 | 16.76563 | 30279 ft | 470 kts | 123° |
| 2026-04-25 21:54 | 52.43168 | 16.81144 | 30510 ft | 472 kts | 117° |
| 2026-04-25 21:54 | 52.41814 | 16.86062 | 30745 ft | 474 kts | 110° |
| 2026-04-25 21:54 | 52.40796 | 16.91230 | 30963 ft | 476 kts | 105° |
| 2026-04-25 21:54 | 52.39912 | 16.96479 | 31147 ft | 477 kts | 105° |
| 2026-04-25 21:55 | 52.39031 | 17.01662 | 31339 ft | 479 kts | 105° |
| 2026-04-25 21:55 | 52.38128 | 17.06930 | 31584 ft | 478 kts | 105° |
| 2026-04-25 21:55 | 52.37221 | 17.12180 | 31819 ft | 478 kts | 106° |
| 2026-04-25 21:55 | 52.36310 | 17.17426 | 32056 ft | 477 kts | 106° |
| 2026-04-25 21:56 | 52.35411 | 17.22583 | 32283 ft | 477 kts | 106° |
| 2026-04-25 21:56 | 52.34794 | 17.26115 | 32434 ft | 477 kts | 106° |
| 2026-04-25 21:56 | 52.33585 | 17.33017 | 32723 ft | 476 kts | 106° |
| 2026-04-25 21:56 | 52.32665 | 17.38251 | 32937 ft | 475 kts | 106° |
| 2026-04-25 21:57 | 52.31750 | 17.43442 | 33143 ft | 475 kts | 106° |
| 2026-04-25 21:57 | 52.30843 | 17.48573 | 33341 ft | 475 kts | 106° |
| 2026-04-25 21:57 | 52.29921 | 17.53772 | 33540 ft | 474 kts | 106° |
| 2026-04-25 21:57 | 52.28998 | 17.58960 | 33726 ft | 474 kts | 106° |
| 2026-04-25 21:58 | 52.28084 | 17.64086 | 33911 ft | 473 kts | 106° |
| 2026-04-25 21:58 | 52.27471 | 17.67518 | 34026 ft | 473 kts | 106° |
| 2026-04-25 21:58 | 52.26547 | 17.72673 | 34211 ft | 473 kts | 106° |
| 2026-04-25 21:58 | 52.25620 | 17.77834 | 34380 ft | 472 kts | 106° |
| 2026-04-25 21:59 | 52.24690 | 17.82994 | 34522 ft | 473 kts | 106° |
| 2026-04-25 21:59 | 52.22829 | 17.93279 | 34708 ft | 474 kts | 107° |
| 2026-04-25 22:00 | 52.20955 | 18.03574 | 34876 ft | 476 kts | 107° |
| 2026-04-25 22:00 | 52.20011 | 18.08742 | 34959 ft | 476 kts | 107° |
| 2026-04-25 22:00 | 52.18115 | 18.19069 | 35000 ft | 476 kts | 107° |
| 2026-04-25 22:01 | 52.16206 | 18.29415 | 34995 ft | 476 kts | 107° |
| 2026-04-25 22:01 | 52.14612 | 18.38005 | 35004 ft | 476 kts | 107° |
| 2026-04-25 22:02 | 52.12359 | 18.50082 | 35002 ft | 476 kts | 107° |
| 2026-04-25 22:02 | 52.10431 | 18.60360 | 34998 ft | 476 kts | 107° |
| 2026-04-25 22:03 | 52.08500 | 18.70591 | 34995 ft | 476 kts | 107° |
| 2026-04-25 22:03 | 52.06547 | 18.80888 | 34999 ft | 476 kts | 107° |
| 2026-04-25 22:04 | 52.04592 | 18.91136 | 35007 ft | 476 kts | 107° |
| 2026-04-25 22:04 | 52.02616 | 19.01440 | 34998 ft | 476 kts | 107° |
| 2026-04-25 22:05 | 52.00635 | 19.11707 | 35006 ft | 476 kts | 108° |
| 2026-04-25 22:05 | 51.98137 | 19.21639 | 34998 ft | 476 kts | 114° |
| 2026-04-25 22:06 | 51.95476 | 19.31421 | 35002 ft | 476 kts | 114° |
| 2026-04-25 22:06 | 51.92799 | 19.41260 | 35004 ft | 476 kts | 114° |
| 2026-04-25 22:07 | 51.90557 | 19.49441 | 35002 ft | 476 kts | 114° |
| 2026-04-25 22:07 | 51.87412 | 19.60859 | 34997 ft | 476 kts | 114° |
| 2026-04-25 22:08 | 51.84714 | 19.70606 | 35000 ft | 477 kts | 114° |
| 2026-04-25 22:08 | 51.81994 | 19.80396 | 34933 ft | 474 kts | 114° |
| 2026-04-25 22:09 | 51.80637 | 19.85262 | 34738 ft | 474 kts | 114° |
| 2026-04-25 22:09 | 51.79297 | 19.90059 | 34419 ft | 474 kts | 114° |
| 2026-04-25 22:09 | 51.77933 | 19.94932 | 33932 ft | 472 kts | 114° |
| 2026-04-25 22:09 | 51.76586 | 19.99736 | 33435 ft | 468 kts | 114° |
| 2026-04-25 22:10 | 51.75248 | 20.04494 | 32935 ft | 463 kts | 114° |
| 2026-04-25 22:10 | 51.73924 | 20.09196 | 32434 ft | 457 kts | 114° |
| 2026-04-25 22:10 | 51.72611 | 20.13847 | 31925 ft | 453 kts | 114° |
| 2026-04-25 22:10 | 51.71326 | 20.18392 | 31443 ft | 450 kts | 115° |
| 2026-04-25 22:11 | 51.70027 | 20.22976 | 30937 ft | 447 kts | 115° |
| 2026-04-25 22:11 | 51.68736 | 20.27524 | 30442 ft | 444 kts | 115° |
| 2026-04-25 22:11 | 51.67451 | 20.32042 | 29941 ft | 440 kts | 115° |
| 2026-04-25 22:11 | 51.66176 | 20.36517 | 29438 ft | 436 kts | 115° |
| 2026-04-25 22:12 | 51.64912 | 20.40944 | 28940 ft | 433 kts | 115° |
| 2026-04-25 22:12 | 51.63670 | 20.45288 | 28446 ft | 430 kts | 115° |
| 2026-04-25 22:12 | 51.62421 | 20.49645 | 27948 ft | 426 kts | 115° |
| 2026-04-25 22:12 | 51.61600 | 20.52507 | 27613 ft | 424 kts | 115° |
| 2026-04-25 22:13 | 51.59959 | 20.58215 | 26946 ft | 420 kts | 115° |
| 2026-04-25 22:13 | 51.58734 | 20.62469 | 26447 ft | 416 kts | 115° |
| 2026-04-25 22:13 | 51.57408 | 20.66596 | 25946 ft | 413 kts | 118° |
| 2026-04-25 22:13 | 51.56109 | 20.70656 | 25455 ft | 410 kts | 117° |
| 2026-04-25 22:14 | 51.54819 | 20.74721 | 24940 ft | 407 kts | 117° |
| 2026-04-25 22:14 | 51.53512 | 20.78755 | 24423 ft | 404 kts | 118° |
| 2026-04-25 22:14 | 51.52194 | 20.82742 | 23910 ft | 400 kts | 118° |
| 2026-04-25 22:14 | 51.50893 | 20.86626 | 23402 ft | 397 kts | 118° |
| 2026-04-25 22:15 | 51.49579 | 20.90522 | 22881 ft | 394 kts | 118° |
| 2026-04-25 22:15 | 51.48270 | 20.94389 | 22384 ft | 391 kts | 118° |
| 2026-04-25 22:15 | 51.46988 | 20.98165 | 21888 ft | 388 kts | 118° |
| 2026-04-25 22:16 | 51.44422 | 21.05716 | 20877 ft | 382 kts | 118° |
| 2026-04-25 22:16 | 51.43150 | 21.09450 | 20372 ft | 379 kts | 118° |
| 2026-04-25 22:16 | 51.41903 | 21.13107 | 19897 ft | 376 kts | 118° |
| 2026-04-25 22:16 | 51.40649 | 21.16780 | 19399 ft | 374 kts | 118° |
| 2026-04-25 22:17 | 51.39397 | 21.20441 | 18902 ft | 371 kts | 119° |
| 2026-04-25 22:17 | 51.38159 | 21.24056 | 18415 ft | 368 kts | 119° |
| 2026-04-25 22:17 | 51.36947 | 21.27589 | 17940 ft | 366 kts | 119° |
| 2026-04-25 22:17 | 51.35725 | 21.31146 | 17459 ft | 363 kts | 119° |
| 2026-04-25 22:18 | 51.34510 | 21.34679 | 16983 ft | 360 kts | 119° |
| 2026-04-25 22:18 | 51.33301 | 21.38189 | 16505 ft | 358 kts | 119° |
| 2026-04-25 22:18 | 51.32100 | 21.41672 | 16038 ft | 355 kts | 119° |
| 2026-04-25 22:18 | 51.30920 | 21.45087 | 15573 ft | 353 kts | 119° |
| 2026-04-25 22:19 | 51.29736 | 21.48511 | 15104 ft | 350 kts | 119° |
| 2026-04-25 22:19 | 51.28559 | 21.51911 | 14645 ft | 348 kts | 119° |
| 2026-04-25 22:19 | 51.27389 | 21.55283 | 14180 ft | 346 kts | 119° |
| 2026-04-25 22:19 | 51.26228 | 21.58627 | 13718 ft | 343 kts | 119° |
| 2026-04-25 22:20 | 51.25071 | 21.61955 | 13263 ft | 341 kts | 119° |
| 2026-04-25 22:20 | 51.23937 | 21.65213 | 12816 ft | 339 kts | 119° |
| 2026-04-25 22:20 | 51.22790 | 21.68501 | 12361 ft | 336 kts | 119° |
| 2026-04-25 22:20 | 51.21653 | 21.71757 | 11908 ft | 334 kts | 119° |
| 2026-04-25 22:21 | 51.20537 | 21.74953 | 11460 ft | 332 kts | 119° |
| 2026-04-25 22:21 | 51.19404 | 21.78190 | 11010 ft | 330 kts | 119° |
| 2026-04-25 22:21 | 51.18301 | 21.81335 | 10566 ft | 328 kts | 119° |
| 2026-04-25 22:21 | 51.17196 | 21.84486 | 10265 ft | 321 kts | 119° |
| 2026-04-25 22:22 | 51.16102 | 21.87603 | 10172 ft | 327 kts | 119° |
| 2026-04-25 22:22 | 51.15307 | 21.90987 | 10068 ft | 327 kts | 99° |
| 2026-04-25 22:22 | 51.15315 | 21.94593 | 10008 ft | 324 kts | 79° |
| 2026-04-25 22:22 | 51.15769 | 21.98085 | 9998 ft | 326 kts | 78° |
| 2026-04-25 22:23 | 51.16232 | 22.01620 | 9997 ft | 326 kts | 78° |
| 2026-04-25 22:23 | 51.16688 | 22.05141 | 9922 ft | 323 kts | 78° |
| 2026-04-25 22:23 | 51.17140 | 22.08677 | 9826 ft | 325 kts | 78° |
| 2026-04-25 22:23 | 51.17591 | 22.12230 | 9618 ft | 326 kts | 78° |
| 2026-04-25 22:24 | 51.18036 | 22.15755 | 9393 ft | 323 kts | 78° |
| 2026-04-25 22:24 | 51.18471 | 22.19214 | 9170 ft | 322 kts | 78° |
| 2026-04-25 22:24 | 51.18910 | 22.22711 | 8945 ft | 321 kts | 78° |
| 2026-04-25 22:24 | 51.19347 | 22.26202 | 8719 ft | 320 kts | 78° |
| 2026-04-25 22:25 | 51.19782 | 22.29679 | 8495 ft | 319 kts | 78° |
| 2026-04-25 22:25 | 51.20214 | 22.33147 | 8271 ft | 318 kts | 78° |
| 2026-04-25 22:25 | 51.20644 | 22.36610 | 8018 ft | 317 kts | 78° |
| 2026-04-25 22:25 | 51.21133 | 22.39986 | 7768 ft | 314 kts | 70° |
| 2026-04-25 22:26 | 51.22144 | 22.43004 | 7518 ft | 306 kts | 52° |
| 2026-04-25 22:26 | 51.23602 | 22.45430 | 7265 ft | 297 kts | 43° |
| 2026-04-25 22:26 | 51.25080 | 22.47694 | 7017 ft | 290 kts | 44° |
| 2026-04-25 22:26 | 51.26501 | 22.49891 | 6765 ft | 284 kts | 44° |
| 2026-04-25 22:27 | 51.27900 | 22.52065 | 6512 ft | 277 kts | 44° |
| 2026-04-25 22:27 | 51.29278 | 22.54210 | 6261 ft | 275 kts | 44° |
| 2026-04-25 22:27 | 51.30440 | 22.56634 | 6000 ft | 276 kts | 64° |
| 2026-04-25 22:27 | 51.30944 | 22.59533 | 5738 ft | 274 kts | 82° |
| 2026-04-25 22:28 | 51.31215 | 22.62558 | 5460 ft | 273 kts | 82° |
| 2026-04-25 22:28 | 51.31490 | 22.65559 | 5182 ft | 270 kts | 81° |
| 2026-04-25 22:28 | 51.31762 | 22.68486 | 4899 ft | 265 kts | 81° |
| 2026-04-25 22:28 | 51.32033 | 22.71377 | 4617 ft | 261 kts | 81° |
| 2026-04-25 22:29 | 51.32300 | 22.74236 | 4353 ft | 257 kts | 81° |
| 2026-04-25 22:29 | 51.32560 | 22.77012 | 4080 ft | 254 kts | 81° |
| 2026-04-25 22:29 | 51.32819 | 22.79793 | 3805 ft | 251 kts | 81° |
| 2026-04-25 22:30 | 51.33325 | 22.85255 | 3345 ft | 241 kts | 81° |
| 2026-04-25 22:30 | 51.33563 | 22.87830 | 3258 ft | 230 kts | 82° |
| 2026-04-25 22:30 | 51.33788 | 22.90274 | 3251 ft | 214 kts | 82° |
| 2026-04-25 22:30 | 51.33930 | 22.91824 | 3251 ft | 203 kts | 82° |
| 2026-04-25 22:31 | 51.33931 | 22.94706 | 3272 ft | 200 kts | 112° |
| 2026-04-25 22:31 | 51.33091 | 22.96417 | 3258 ft | 197 kts | 150° |
| 2026-04-25 22:31 | 51.31785 | 22.96939 | 3260 ft | 196 kts | 188° |
| 2026-04-25 22:31 | 51.30502 | 22.96243 | 3255 ft | 194 kts | 208° |
| 2026-04-25 22:32 | 51.29390 | 22.95229 | 3246 ft | 177 kts | 212° |
| 2026-04-25 22:32 | 51.28384 | 22.94141 | 3269 ft | 177 kts | 221° |
| 2026-04-25 22:32 | 51.27555 | 22.92713 | 3260 ft | 174 kts | 237° |
| 2026-04-25 22:32 | 51.26978 | 22.91006 | 3258 ft | 174 kts | 249° |
| 2026-04-25 22:33 | 51.26601 | 22.89196 | 3257 ft | 174 kts | 256° |
| 2026-04-25 22:33 | 51.26394 | 22.87292 | 3241 ft | 173 kts | 277° |
| 2026-04-25 22:33 | 51.26852 | 22.85486 | 3730 ft | 177 kts | 313° |
| 2026-04-25 22:33 | 51.27746 | 22.84627 | 5067 ft | 140 kts | 344° |
| 2026-04-25 22:34 | 51.28890 | 22.84289 | 5076 ft | 195 kts | 347° |
| 2026-04-25 22:34 | 51.30336 | 22.83452 | 4753 ft | 252 kts | 344° |
| 2026-04-25 22:34 | 51.32279 | 22.83380 | 4360 ft | 308 kts | 12° |
| 2026-04-25 22:34 | 51.34434 | 22.84545 | 3983 ft | 348 kts | 26° |
| 2026-04-25 22:35 | 51.36482 | 22.86989 | 3606 ft | 385 kts | 47° |
| 2026-04-25 22:35 | 51.38065 | 22.90352 | 3387 ft | 375 kts | 55° |
| 2026-04-25 22:35 | 51.39535 | 22.93742 | 2863 ft | 367 kts | 56° |
| 2026-04-25 22:35 | 51.40605 | 22.97210 | 3117 ft | 335 kts | 77° |
| 2026-04-25 22:36 | 51.40519 | 23.00711 | 3359 ft | 304 kts | 115° |
| 2026-04-25 22:36 | 51.39271 | 23.03228 | 3394 ft | 285 kts | 145° |
| 2026-04-25 22:36 | 51.37647 | 23.04969 | 3258 ft | 273 kts | 142° |
| 2026-04-25 22:36 | 51.36075 | 23.06348 | 3251 ft | 243 kts | 168° |
| 2026-04-25 22:37 | 51.34480 | 23.06687 | 3252 ft | 226 kts | 175° |
| 2026-04-25 22:37 | 51.32960 | 23.06920 | 3254 ft | 215 kts | 179° |
| 2026-04-25 22:37 | 51.31483 | 23.06483 | 3256 ft | 218 kts | 209° |
| 2026-04-25 22:37 | 51.30422 | 23.04869 | 3258 ft | 216 kts | 243° |
| 2026-04-25 22:38 | 51.29847 | 23.02661 | 3253 ft | 210 kts | 250° |
| 2026-04-25 22:38 | 51.29364 | 23.00545 | 3251 ft | 194 kts | 251° |
| 2026-04-25 22:38 | 51.28909 | 22.98524 | 3261 ft | 196 kts | 250° |
| 2026-04-25 22:38 | 51.28451 | 22.96527 | 3248 ft | 183 kts | 250° |
| 2026-04-25 22:39 | 51.28028 | 22.94714 | 3285 ft | 171 kts | 250° |
| 2026-04-25 22:39 | 51.27602 | 22.92909 | 3257 ft | 172 kts | 250° |
| 2026-04-25 22:39 | 51.27185 | 22.91154 | 3219 ft | 173 kts | 249° |
| 2026-04-25 22:39 | 51.26779 | 22.89327 | 2820 ft | 178 kts | 255° |
| 2026-04-25 22:40 | 51.26440 | 22.87407 | 2310 ft | 180 kts | 253° |
| 2026-04-25 22:40 | 51.26107 | 22.85584 | 2162 ft | 162 kts | 255° |
| 2026-04-25 22:40 | 51.25834 | 22.83914 | 1993 ft | 147 kts | 256° |
| 2026-04-25 22:40 | 51.25607 | 22.82410 | 1805 ft | 136 kts | 257° |
| 2026-04-25 22:41 | 51.25390 | 22.80913 | 1636 ft | 138 kts | 257° |
| 2026-04-25 22:41 | 51.25176 | 22.79422 | 1451 ft | 137 kts | 257° |
| 2026-04-25 22:41 | 51.24965 | 22.77953 | 1277 ft | 137 kts | 257° |
| 2026-04-25 22:41 | 51.24752 | 22.76471 | 1094 ft | 137 kts | 257° |
| 2026-04-25 22:42 | 51.24540 | 22.74991 | 920 ft | 136 kts | 257° |
| 2026-04-25 22:42 | 51.24324 | 22.73512 | 719 ft | 136 kts | 257° |
| 2026-04-25 22:42 | 51.24119 | 22.72095 | 640 ft | 112 kts | 258° |
| 2026-04-25 22:42 | 51.24032 | 22.71457 | 644 ft | 29 kts | 257° |
| 2026-04-25 22:43 | 51.23919 | 22.71389 | 650 ft | 17 kts | 171° |
| 2026-04-25 22:43 | 51.23806 | 22.71427 | 654 ft | 17 kts | 168° |
| 2026-04-25 22:43 | 51.23728 | 22.71497 | 653 ft | 0 kts | 88° |
| 2026-04-25 22:43 | 51.23716 | 22.71517 | 656 ft | 5 kts | 158° |
| 2026-04-25 22:44 | 51.23687 | 22.71530 | 652 ft | 8 kts | 166° |
| 2026-04-25 22:44 | 51.23652 | 22.71543 | 654 ft | 2 kts | 167° |
| 2026-04-25 22:44 | 51.23651 | 22.71544 | 654 ft | 0 kts | 167° |